Silver Bergen — LAHO6 — position and weather

sailwx.info

Track history (hours):
 
Tides and Currents Weather Stations Pressure Air Temp Water Temp Dewpoint Dewpoint Depression Visibility Wind Speed Wind Dir Waves Ship Positions

Silver Bergen

Last reported at 2015-Jan-29 10:20 UTC. Time now 2015-Feb-01 05:44 UTC.
Position N 53°32' E 014°38'.

Length 97 m; draft 5.7 m.

Type: Cargo ship. MMSI: 257951000.

Date/timePositionNaut miles runAvg speedWind from/ knotsBaromVisibWave heightAir tempDewpointWater temp
2015-Jan-29 10:20N 53°32' E 014°38'810.2
2015-Jan-29 09:33N 53°39' E 014°33'1110.7
2015-Jan-29 08:33N 53°48' E 014°22'8 7.7
2015-Jan-29 07:33N 53°55' E 014°16'9 9.0
2015-Jan-29 06:33N 54°03' E 014°14'1212.2
2015-Jan-29 05:33N 54°15' E 014°09'1312.7
2015-Jan-29 04:33N 54°26' E 013°58'1313.1
2015-Jan-29 03:33N 54°38' E 013°48'1413.5
2015-Jan-29 02:33N 54°49' E 013°34'4112.9
2015-Jan-28 23:24N 55°17' E 012°42'1011.4
2015-Jan-28 22:33N 55°26' E 012°40'1110.7
2015-Jan-28 21:33N 55°37' E 012°42'8 8.3
2015-Jan-28 20:33N 55°45' E 012°41'1110.9
2015-Jan-28 19:33N 55°56' E 012°38'1010.0
2015-Jan-28 18:33N 56°05' E 012°34'1212.3
2015-Jan-28 17:33N 56°13' E 012°16'2411.7
2015-Jan-28 15:33N 56°33' E 011°56'2512.3
2015-Jan-28 13:28N 56°57' E 011°42'1212.4
2015-Jan-28 12:31N 57°08' E 011°33'1212.2
2015-Jan-28 11:32N 57°19' E 011°24'1212.1
2015-Jan-28 10:33N 57°30' E 011°16'1212.3
2015-Jan-28 09:33N 57°39' E 010°59'1212.0
2015-Jan-28 08:33N 57°47' E 010°42'16912.1
2015-Jan-27 18:33N 58°03' E 005°26'1313.3
2015-Jan-27 17:33N 58°09' E 005°04'  
2015-Jan-25 11:29N 59°16' W 003°21'1213.1
2015-Jan-25 10:33N 59°09' W 003°40'1313.1
2015-Jan-25 09:33N 59°02' W 004°02'1313.4
2015-Jan-25 08:33N 58°54' W 004°23'6412.6
2015-Jan-25 03:31N 58°06' W 005°42'14010.8
2015-Jan-24 14:33N 55°52' W 006°54'1211.9
2015-Jan-24 13:33N 55°42' W 006°42'1111.4
2015-Jan-24 12:33N 55°33' W 006°29'10 9.7
2015-Jan-24 11:33N 55°26' W 006°18'8 7.9
2015-Jan-24 10:34N 55°24' W 006°05'7 6.8
2015-Jan-24 09:33N 55°19' W 005°57'7 7.4
2015-Jan-24 08:33N 55°13' W 005°49'2612.9
2015-Jan-24 06:33N 54°51' W 005°26'1615.8
2015-Jan-24 05:34N 54°37' W 005°13'1615.5
2015-Jan-24 04:33N 54°22' W 005°10'  
2015-Jan-20 23:04N 39°09' W 009°51'8 8.6
2015-Jan-20 22:07N 39°01' W 009°51'5 8.5
2015-Jan-20 21:32N 38°56' W 009°51'9 8.7
2015-Jan-20 20:30N 38°47' W 009°50'8 8.8
2015-Jan-20 19:33N 38°38' W 009°49'9 8.7
2015-Jan-20 18:33N 38°30' W 009°46'9 8.6
2015-Jan-20 17:33N 38°22' W 009°44'17 8.6
2015-Jan-20 15:33N 38°05' W 009°39'22 8.6
2015-Jan-20 13:03N 37°44' W 009°32'4 8.6
2015-Jan-20 12:32N 37°40' W 009°31'  
Track history (hours):
 
Tides and Currents Weather Stations Pressure Air Temp Water Temp Dewpoint Dewpoint Depression Visibility Wind Speed Wind Dir Waves Ship Positions

Silver Bergen

Last reported at 2015-Jan-29 10:20 UTC. Time now 2015-Feb-01 05:44 UTC.
Position N 53°32' E 014°38'.

Length 97 m; draft 5.7 m.

Type: Cargo ship. MMSI: 257951000.

Date/timePositionNaut miles runAvg speedWind from/ knotsBaromVisibWave heightAir tempDewpointWater temp
2015-Jan-29 10:20N 53°32' E 014°38'810.2
2015-Jan-29 09:33N 53°39' E 014°33'1110.7
2015-Jan-29 08:33N 53°48' E 014°22'8 7.7
2015-Jan-29 07:33N 53°55' E 014°16'9 9.0
2015-Jan-29 06:33N 54°03' E 014°14'1212.2
2015-Jan-29 05:33N 54°15' E 014°09'1312.7
2015-Jan-29 04:33N 54°26' E 013°58'1313.1
2015-Jan-29 03:33N 54°38' E 013°48'1413.5
2015-Jan-29 02:33N 54°49' E 013°34'4112.9
2015-Jan-28 23:24N 55°17' E 012°42'1011.4
2015-Jan-28 22:33N 55°26' E 012°40'1110.7
2015-Jan-28 21:33N 55°37' E 012°42'8 8.3
2015-Jan-28 20:33N 55°45' E 012°41'1110.9
2015-Jan-28 19:33N 55°56' E 012°38'1010.0
2015-Jan-28 18:33N 56°05' E 012°34'1212.3
2015-Jan-28 17:33N 56°13' E 012°16'2411.7
2015-Jan-28 15:33N 56°33' E 011°56'2512.3
2015-Jan-28 13:28N 56°57' E 011°42'1212.4
2015-Jan-28 12:31N 57°08' E 011°33'1212.2
2015-Jan-28 11:32N 57°19' E 011°24'1212.1
2015-Jan-28 10:33N 57°30' E 011°16'1212.3
2015-Jan-28 09:33N 57°39' E 010°59'1212.0
2015-Jan-28 08:33N 57°47' E 010°42'16912.1
2015-Jan-27 18:33N 58°03' E 005°26'1313.3
2015-Jan-27 17:33N 58°09' E 005°04'  
2015-Jan-25 11:29N 59°16' W 003°21'1213.1
2015-Jan-25 10:33N 59°09' W 003°40'1313.1
2015-Jan-25 09:33N 59°02' W 004°02'1313.4
2015-Jan-25 08:33N 58°54' W 004°23'6412.6
2015-Jan-25 03:31N 58°06' W 005°42'14010.8
2015-Jan-24 14:33N 55°52' W 006°54'1211.9
2015-Jan-24 13:33N 55°42' W 006°42'1111.4
2015-Jan-24 12:33N 55°33' W 006°29'10 9.7
2015-Jan-24 11:33N 55°26' W 006°18'8 7.9
2015-Jan-24 10:34N 55°24' W 006°05'7 6.8
2015-Jan-24 09:33N 55°19' W 005°57'7 7.4
2015-Jan-24 08:33N 55°13' W 005°49'2612.9
2015-Jan-24 06:33N 54°51' W 005°26'1615.8
2015-Jan-24 05:34N 54°37' W 005°13'1615.5
2015-Jan-24 04:33N 54°22' W 005°10'  
2015-Jan-20 23:04N 39°09' W 009°51'8 8.6
2015-Jan-20 22:07N 39°01' W 009°51'5 8.5
2015-Jan-20 21:32N 38°56' W 009°51'9 8.7
2015-Jan-20 20:30N 38°47' W 009°50'8 8.8
2015-Jan-20 19:33N 38°38' W 009°49'9 8.7
2015-Jan-20 18:33N 38°30' W 009°46'9 8.6
2015-Jan-20 17:33N 38°22' W 009°44'17 8.6
2015-Jan-20 15:33N 38°05' W 009°39'22 8.6
2015-Jan-20 13:03N 37°44' W 009°32'4 8.6
2015-Jan-20 12:32N 37°40' W 009°31'  

Dump ship's entire track history